createdAt,value
2023-04-09T00:01:24.705Z,9.72
2023-04-09T00:04:26.615Z,9.68
2023-04-09T00:07:28.531Z,9.64
2023-04-09T00:10:30.585Z,9.59
2023-04-09T00:13:39.345Z,9.56
2023-04-09T00:16:41.706Z,9.51
2023-04-09T00:19:43.688Z,9.44
2023-04-09T00:22:45.571Z,9.37
2023-04-09T00:25:47.419Z,9.32
2023-04-09T00:28:49.661Z,9.25
2023-04-09T00:31:51.956Z,9.23
2023-04-09T00:34:53.799Z,9.18
2023-04-09T00:37:55.690Z,9.15
2023-04-09T00:40:57.641Z,9.13
2023-04-09T00:43:59.492Z,9.10
2023-04-09T00:47:01.462Z,9.07
2023-04-09T00:50:03.820Z,9.06
2023-04-09T00:53:06.305Z,9.07
2023-04-09T00:56:08.238Z,9.07
2023-04-09T00:59:10.396Z,9.05
2023-04-09T01:02:12.720Z,9.07
2023-04-09T01:05:15.773Z,9.10
2023-04-09T01:08:49.144Z,9.09
2023-04-09T01:12:07.627Z,9.09
2023-04-09T01:15:13.892Z,9.09
2023-04-09T01:18:31.191Z,9.12
2023-04-09T01:21:34.417Z,9.14
2023-04-09T01:24:42.772Z,9.17
2023-04-09T01:28:06.149Z,9.23
2023-04-09T01:31:13.587Z,9.27
2023-04-09T01:34:16.938Z,9.32
2023-04-09T01:37:20.623Z,9.34
2023-04-09T01:40:22.939Z,9.34
2023-04-09T01:43:27.534Z,9.36
2023-04-09T01:46:30.616Z,9.39
2023-04-09T01:49:33.303Z,9.42
2023-04-09T01:52:35.465Z,9.42
2023-04-09T01:55:37.421Z,9.42
2023-04-09T01:58:39.298Z,9.43
2023-04-09T02:01:48.316Z,9.44
2023-04-09T02:04:54.383Z,9.47
2023-04-09T02:07:59.916Z,9.47
2023-04-09T02:11:05.040Z,9.46
2023-04-09T02:14:09.032Z,9.50
2023-04-09T02:17:11.631Z,9.52
2023-04-09T02:20:18.773Z,9.50
2023-04-09T02:23:21.668Z,9.48
2023-04-09T02:26:24.351Z,9.48
2023-04-09T02:29:26.212Z,9.48
2023-04-09T02:32:28.217Z,9.47
2023-04-09T02:35:30.356Z,9.45
2023-04-09T02:38:32.762Z,9.43
2023-04-09T02:41:34.565Z,9.43
2023-04-09T02:44:36.569Z,9.38
2023-04-09T02:47:38.958Z,9.35
2023-04-09T02:50:41.418Z,9.34
2023-04-09T02:53:43.396Z,9.36
2023-04-09T02:56:45.344Z,9.33
2023-04-09T02:59:47.379Z,9.29
2023-04-09T03:02:50.924Z,9.27
2023-04-09T03:05:53.098Z,9.26
2023-04-09T03:08:54.997Z,9.25
2023-04-09T03:11:58.600Z,9.24
2023-04-09T03:15:00.484Z,9.21
2023-04-09T03:18:02.490Z,9.22
2023-04-09T03:21:08.700Z,9.24
2023-04-09T03:24:13.563Z,9.25
2023-04-09T03:27:16.480Z,9.19
2023-04-09T03:30:18.600Z,9.18
2023-04-09T03:33:20.790Z,9.21
2023-04-09T03:36:28.246Z,9.17
2023-04-09T03:39:37.967Z,9.20
2023-04-09T03:42:39.884Z,9.19
2023-04-09T03:45:43.343Z,9.25
2023-04-09T03:49:00.784Z,9.24
2023-04-09T03:52:11.510Z,9.28
2023-04-09T03:55:17.418Z,9.32
2023-04-09T03:58:19.763Z,9.37
2023-04-09T04:01:22.622Z,9.37
2023-04-09T04:04:32.194Z,9.41
2023-04-09T04:07:34.095Z,9.50
2023-04-09T04:10:42.034Z,9.57
2023-04-09T04:13:45.602Z,9.65
2023-04-09T04:16:47.545Z,9.71
2023-04-09T04:19:53.551Z,9.77
2023-04-09T04:22:57.835Z,9.83
2023-04-09T04:26:01.546Z,9.88
2023-04-09T04:29:08.873Z,10.06
2023-04-09T04:32:29.986Z,10.09
2023-04-09T04:35:36.095Z,10.14
2023-04-09T04:38:41.800Z,10.11
2023-04-09T04:41:50.717Z,10.14
2023-04-09T04:44:58.885Z,10.20
2023-04-09T04:48:11.015Z,10.26
2023-04-09T04:51:12.939Z,10.34
2023-04-09T04:54:20.769Z,10.48
2023-04-09T04:57:26.800Z,10.61
2023-04-09T05:00:29.793Z,10.65
2023-04-09T05:03:36.148Z,10.78
2023-04-09T05:06:58.031Z,10.81
2023-04-09T05:10:00.890Z,10.81
2023-04-09T05:13:09.379Z,10.71
2023-04-09T05:16:20.104Z,10.74
2023-04-09T05:19:28.562Z,10.77
2023-04-09T05:22:36.984Z,10.79
2023-04-09T05:25:40.036Z,10.83
2023-04-09T05:28:47.608Z,10.78
2023-04-09T05:31:53.581Z,10.74
2023-04-09T05:35:05.154Z,10.76
2023-04-09T05:38:13.672Z,10.77
2023-04-09T05:41:17.999Z,10.79
2023-04-09T05:44:30.636Z,10.80
2023-04-09T05:47:47.282Z,10.92
2023-04-09T05:50:55.451Z,11.04
2023-04-09T05:54:01.336Z,11.10
2023-04-09T05:57:08.194Z,11.17
2023-04-09T06:00:13.593Z,11.20
2023-04-09T06:03:18.765Z,11.23
2023-04-09T06:06:20.956Z,11.40
2023-04-09T06:09:22.871Z,11.52
2023-04-09T06:12:24.758Z,11.59
2023-04-09T06:15:26.848Z,11.66
2023-04-09T06:18:29.650Z,11.75
2023-04-09T06:21:31.497Z,11.92
2023-04-09T06:24:33.423Z,12.08
2023-04-09T06:27:35.582Z,12.16
2023-04-09T06:30:37.496Z,12.25
2023-04-09T06:33:39.400Z,12.40
2023-04-09T06:36:41.425Z,12.60
2023-04-09T06:39:47.716Z,12.67
2023-04-09T06:42:59.930Z,12.63
2023-04-09T06:46:05.735Z,12.72
2023-04-09T06:49:07.631Z,13.09
2023-04-09T06:52:09.589Z,13.26
2023-04-09T06:55:11.654Z,13.28
2023-04-09T06:58:13.547Z,13.26
2023-04-09T07:01:17.442Z,13.21
2023-04-09T07:04:19.478Z,13.17
2023-04-09T07:07:24.267Z,13.11
2023-04-09T07:10:27.321Z,13.05
2023-04-09T07:13:29.707Z,12.94
2023-04-09T07:16:31.800Z,12.98
2023-04-09T07:19:33.764Z,13.07
2023-04-09T07:22:36.462Z,12.90
2023-04-09T07:25:38.307Z,12.67
2023-04-09T07:28:40.622Z,12.65
2023-04-09T07:31:42.626Z,12.62
2023-04-09T07:34:45.545Z,12.66
2023-04-09T07:37:47.407Z,12.78
2023-04-09T07:40:49.410Z,12.83
2023-04-09T07:43:51.672Z,12.95
2023-04-09T07:46:53.540Z,13.04
2023-04-09T07:49:55.499Z,13.13
2023-04-09T07:52:57.457Z,13.26
2023-04-09T07:55:59.304Z,13.40
2023-04-09T07:59:01.157Z,13.35
2023-04-09T08:02:03.304Z,13.42
2023-04-09T08:05:05.934Z,13.48
2023-04-09T08:08:07.906Z,13.60
2023-04-09T08:11:09.780Z,13.68
2023-04-09T08:14:16.315Z,13.64
2023-04-09T08:17:18.225Z,13.69
2023-04-09T08:20:20.204Z,13.73
2023-04-09T08:23:22.125Z,13.66
2023-04-09T08:26:24.045Z,13.64
2023-04-09T08:29:27.040Z,13.63
2023-04-09T08:32:29.355Z,13.64
2023-04-09T08:35:31.668Z,13.54
2023-04-09T08:38:33.468Z,13.56
2023-04-09T08:41:41.157Z,13.51
2023-04-09T08:44:43.850Z,13.50
2023-04-09T08:47:48.053Z,13.63
2023-04-09T08:50:50.499Z,13.73
2023-04-09T08:53:55.447Z,13.79
2023-04-09T08:56:57.652Z,13.90
2023-04-09T08:59:59.523Z,14.11
2023-04-09T09:03:09.483Z,14.18
2023-04-09T09:06:22.593Z,14.37
2023-04-09T09:09:26.836Z,14.31
2023-04-09T09:12:36.221Z,14.40
2023-04-09T09:15:38.120Z,14.48
2023-04-09T09:18:41.755Z,14.58
2023-04-09T09:21:43.784Z,14.69
2023-04-09T09:24:50.290Z,14.99
2023-04-09T09:27:53.489Z,15.36
2023-04-09T09:30:55.487Z,15.88
2023-04-09T09:33:57.506Z,16.32
2023-04-09T09:36:59.464Z,16.52
2023-04-09T09:40:01.627Z,16.46
2023-04-09T09:43:03.689Z,16.35
2023-04-09T09:46:06.280Z,16.55
2023-04-09T09:49:09.584Z,16.68
2023-04-09T09:52:11.670Z,16.29
2023-04-09T09:55:18.113Z,16.06
2023-04-09T09:58:27.919Z,15.90
2023-04-09T10:01:30.365Z,16.03
2023-04-09T10:04:38.311Z,16.41
2023-04-09T10:07:41.627Z,16.84
2023-04-09T10:10:44.024Z,16.93
2023-04-09T10:13:59.471Z,16.92
2023-04-09T10:17:04.122Z,17.22
2023-04-09T10:20:23.063Z,17.11
2023-04-09T10:23:34.128Z,17.24
2023-04-09T10:26:40.328Z,16.91
2023-04-09T10:29:47.436Z,16.68
2023-04-09T10:32:49.375Z,16.47
2023-04-09T10:35:51.825Z,16.36
2023-04-09T10:38:53.968Z,16.16
2023-04-09T10:41:59.682Z,16.08
2023-04-09T10:45:15.491Z,16.05
2023-04-09T10:48:19.554Z,16.01
2023-04-09T10:51:21.482Z,15.95
2023-04-09T10:54:35.494Z,15.95
2023-04-09T10:57:37.635Z,15.85
2023-04-09T11:00:44.248Z,15.84
2023-04-09T11:04:08.962Z,15.77
2023-04-09T11:07:15.950Z,15.90
2023-04-09T11:10:18.798Z,15.79
2023-04-09T11:13:22.032Z,15.78
2023-04-09T11:16:26.584Z,15.78
2023-04-09T11:19:30.127Z,15.78
2023-04-09T11:22:31.987Z,15.77
2023-04-09T11:25:35.315Z,15.67
2023-04-09T11:28:37.298Z,15.67
2023-04-09T11:31:39.314Z,15.64
2023-04-09T11:34:41.142Z,15.60
2023-04-09T11:37:44.357Z,15.62
2023-04-09T11:40:49.408Z,15.81
2023-04-09T11:43:52.226Z,15.91
2023-04-09T11:46:54.631Z,16.01
2023-04-09T11:49:56.730Z,15.91
2023-04-09T11:52:58.933Z,16.00
2023-04-09T11:56:01.704Z,16.17
2023-04-09T12:03:05.490Z,15.96
2023-04-09T12:06:09.393Z,15.76
2023-04-09T12:09:13.745Z,15.66
2023-04-09T12:12:20.507Z,15.50
2023-04-09T12:15:22.425Z,15.38
2023-04-09T12:18:24.873Z,15.34
2023-04-09T12:21:27.578Z,15.23
2023-04-09T12:24:29.469Z,15.07
2023-04-09T12:27:33.478Z,14.95
2023-04-09T12:30:36.324Z,14.97
2023-04-09T12:33:40.494Z,14.89
2023-04-09T12:36:42.594Z,14.95
2023-04-09T12:39:44.602Z,15.02
2023-04-09T12:42:47.471Z,15.19
2023-04-09T12:45:49.469Z,15.36
2023-04-09T12:48:51.562Z,15.50
2023-04-09T12:51:53.402Z,15.61
2023-04-09T12:54:55.632Z,15.72
2023-04-09T12:57:58.364Z,15.74
2023-04-09T13:01:01.021Z,15.80
2023-04-09T13:04:03.162Z,15.84
2023-04-09T13:07:05.146Z,15.80
2023-04-09T13:10:07.481Z,15.81
2023-04-09T13:13:12.205Z,15.88
2023-04-09T13:16:14.081Z,15.81
2023-04-09T13:19:15.967Z,15.74
2023-04-09T13:22:18.876Z,15.74
2023-04-09T13:25:20.963Z,15.72
2023-04-09T13:28:22.856Z,15.74
2023-04-09T13:31:25.270Z,15.71
2023-04-09T13:34:27.256Z,15.74
2023-04-09T13:37:29.139Z,15.73
2023-04-09T13:40:31.213Z,15.73
2023-04-09T13:43:33.103Z,15.76
2023-04-09T13:46:35.024Z,15.78
2023-04-09T13:49:36.953Z,15.81
2023-04-09T13:52:38.786Z,16.02
2023-04-09T13:55:40.851Z,16.05
2023-04-09T13:58:43.814Z,16.07
2023-04-09T14:01:45.882Z,15.99
2023-04-09T14:04:47.897Z,15.96
2023-04-09T14:07:49.869Z,15.99
2023-04-09T14:10:51.723Z,15.85
2023-04-09T14:13:53.824Z,15.82
2023-04-09T14:16:56.015Z,15.80
2023-04-09T14:19:59.175Z,15.79
2023-04-09T14:23:01.277Z,15.80
2023-04-09T14:26:04.370Z,15.70
2023-04-09T14:29:06.200Z,15.57
2023-04-09T14:32:08.266Z,15.56
2023-04-09T14:35:10.489Z,15.52
2023-04-09T14:38:12.949Z,15.48
2023-04-09T14:41:14.924Z,15.46
2023-04-09T14:44:16.801Z,15.53
2023-04-09T14:47:18.641Z,15.57
2023-04-09T14:50:21.252Z,15.53
2023-04-09T14:53:23.549Z,15.50
2023-04-09T14:56:25.559Z,15.52
2023-04-09T14:59:27.628Z,15.61
2023-04-09T15:02:29.648Z,15.70
2023-04-09T15:05:31.689Z,15.68
2023-04-09T15:08:33.704Z,15.63
2023-04-09T15:11:35.668Z,15.61
2023-04-09T15:14:37.589Z,15.66
2023-04-09T15:17:39.763Z,15.70
2023-04-09T15:20:43.487Z,15.58
2023-04-09T15:23:46.244Z,15.35
2023-04-09T15:26:48.071Z,15.14
2023-04-09T15:29:50.032Z,14.95
2023-04-09T15:32:52.819Z,14.78
2023-04-09T15:35:54.823Z,14.58
2023-04-09T15:38:56.659Z,14.39
2023-04-09T15:41:58.677Z,14.30
2023-04-09T15:45:00.677Z,14.08
2023-04-09T15:48:02.613Z,14.03
2023-04-09T15:51:08.063Z,13.91
2023-04-09T15:54:09.876Z,13.88
2023-04-09T15:57:11.847Z,13.70
2023-04-09T16:00:14.124Z,13.59
2023-04-09T16:03:16.320Z,13.46
2023-04-09T16:06:19.809Z,13.41
2023-04-09T16:09:21.777Z,13.32
2023-04-09T16:12:24.896Z,13.24
2023-04-09T16:15:27.212Z,13.11
2023-04-09T16:18:29.304Z,13.05
2023-04-09T16:21:31.252Z,13.01
2023-04-09T16:24:33.250Z,12.98
2023-04-09T16:27:35.327Z,12.94
2023-04-09T16:30:37.746Z,12.82
2023-04-09T16:33:39.746Z,12.77
2023-04-09T16:36:41.780Z,12.73
2023-04-09T16:39:43.618Z,12.70
2023-04-09T16:42:45.458Z,12.67
2023-04-09T16:45:47.395Z,12.65
2023-04-09T16:48:49.199Z,12.64
2023-04-09T16:51:53.220Z,12.62
2023-04-09T16:54:55.641Z,12.59
2023-04-09T16:57:57.446Z,12.58
2023-04-09T17:00:59.405Z,12.58
2023-04-09T17:04:03.195Z,12.54
2023-04-09T17:07:05.214Z,12.50
2023-04-09T17:10:07.802Z,12.48
2023-04-09T17:13:09.920Z,12.42
2023-04-09T17:16:11.992Z,12.36
2023-04-09T17:19:13.981Z,12.31
2023-04-09T17:22:17.903Z,12.29
2023-04-09T17:25:20.710Z,12.17
2023-04-09T17:28:22.691Z,12.12
2023-04-09T17:31:24.668Z,12.05
2023-04-09T17:34:26.664Z,11.98
2023-04-09T17:37:29.262Z,11.93
2023-04-09T17:40:32.047Z,11.79
2023-04-09T17:43:33.817Z,11.60
2023-04-09T17:46:36.684Z,11.57
2023-04-09T17:49:39.355Z,11.42
2023-04-09T17:52:41.248Z,11.32
2023-04-09T17:55:50.983Z,11.23
2023-04-09T17:58:53.608Z,11.12
2023-04-09T18:01:56.745Z,11.02
2023-04-09T18:05:02.811Z,11.01
2023-04-09T18:08:05.218Z,10.92
2023-04-09T18:11:11.850Z,10.84
2023-04-09T18:14:16.182Z,10.78
2023-04-09T18:17:18.057Z,10.65
2023-04-09T18:20:20.077Z,10.56
2023-04-09T18:23:22.030Z,10.46
2023-04-09T18:26:24.063Z,10.40
2023-04-09T18:29:27.591Z,10.34
2023-04-09T18:32:29.861Z,10.27
2023-04-09T18:35:31.860Z,10.19
2023-04-09T18:38:34.741Z,10.13
2023-04-09T18:41:36.614Z,10.07
2023-04-09T18:44:38.798Z,10.00
2023-04-09T18:47:40.958Z,9.87
2023-04-09T18:50:42.866Z,9.84
2023-04-09T18:53:48.153Z,9.77
2023-04-09T18:56:50.053Z,9.71
2023-04-09T18:59:51.957Z,9.67
2023-04-09T19:02:54.252Z,9.62
2023-04-09T19:05:56.447Z,9.60
2023-04-09T19:08:59.103Z,9.56
2023-04-09T19:12:02.069Z,9.51
2023-04-09T19:15:04.946Z,9.49
2023-04-09T19:18:06.925Z,9.39
2023-04-09T19:21:09.136Z,9.33
2023-04-09T19:24:11.419Z,9.27
2023-04-09T19:27:14.159Z,9.18
2023-04-09T19:30:16.199Z,9.16
2023-04-09T19:33:22.209Z,9.13
2023-04-09T19:36:24.303Z,9.10
2023-04-09T19:39:26.215Z,9.05
2023-04-09T19:42:28.878Z,9.00
2023-04-09T19:45:31.732Z,8.95
2023-04-09T19:48:35.520Z,8.85
2023-04-09T19:51:37.513Z,8.74
2023-04-09T19:54:39.409Z,8.65
2023-04-09T19:57:43.658Z,8.58
2023-04-09T20:00:45.704Z,8.56
2023-04-09T20:03:48.219Z,8.54
2023-04-09T20:06:51.772Z,8.50
2023-04-09T20:09:53.654Z,8.46
2023-04-09T20:12:55.688Z,8.35
2023-04-09T20:15:57.849Z,8.27
2023-04-09T20:18:59.717Z,8.28
2023-04-09T20:22:02.247Z,8.26
2023-04-09T20:25:04.306Z,8.23
2023-04-09T20:28:06.507Z,8.18
2023-04-09T20:31:08.404Z,8.13
2023-04-09T20:34:10.560Z,8.09
2023-04-09T20:37:12.523Z,8.01
2023-04-09T20:40:14.475Z,7.94
2023-04-09T20:43:16.724Z,7.91
2023-04-09T20:46:18.728Z,7.87
2023-04-09T20:49:20.767Z,7.81
2023-04-09T20:52:23.543Z,7.77
2023-04-09T20:55:26.580Z,7.75
2023-04-09T20:58:28.578Z,7.71
2023-04-09T21:01:30.684Z,7.67
2023-04-09T21:04:32.645Z,7.65
2023-04-09T21:07:34.579Z,7.67
2023-04-09T21:10:36.533Z,7.74
2023-04-09T21:13:53.053Z,7.79
2023-04-09T21:16:56.809Z,7.81
2023-04-09T21:19:58.796Z,7.86
2023-04-09T21:23:00.798Z,7.95
2023-04-09T21:26:04.789Z,8.03
2023-04-09T21:29:06.627Z,8.07
2023-04-09T21:32:08.575Z,8.14
2023-04-09T21:35:10.538Z,8.19
2023-04-09T21:38:12.467Z,8.22
2023-04-09T21:41:14.301Z,8.23
2023-04-09T21:44:16.203Z,8.28
2023-04-09T21:47:18.182Z,8.30
2023-04-09T21:50:20.142Z,8.33
2023-04-09T21:53:22.034Z,8.32
2023-04-09T21:56:23.931Z,8.32
2023-04-09T21:59:25.834Z,8.33
2023-04-09T22:02:28.414Z,8.35
2023-04-09T22:05:31.973Z,8.32
2023-04-09T22:08:35.366Z,8.32
2023-04-09T22:11:41.587Z,8.34
2023-04-09T22:14:43.459Z,8.31
2023-04-09T22:17:45.679Z,8.28
2023-04-09T22:20:47.658Z,8.27
2023-04-09T22:23:50.637Z,8.28
2023-04-09T22:26:53.557Z,8.30
2023-04-09T22:29:55.400Z,8.30
2023-04-09T22:32:57.316Z,8.31
2023-04-09T22:35:59.636Z,8.35
2023-04-09T22:39:01.659Z,8.36
2023-04-09T22:42:03.868Z,8.35
2023-04-09T22:45:06.216Z,8.35
2023-04-09T22:48:08.506Z,8.37
2023-04-09T22:51:10.378Z,8.36
2023-04-09T22:54:12.334Z,8.35
2023-04-09T22:57:14.274Z,8.32
2023-04-09T23:00:16.426Z,8.31
2023-04-09T23:03:18.473Z,8.30
2023-04-09T23:06:20.815Z,8.26
2023-04-09T23:09:22.828Z,8.24
2023-04-09T23:12:24.722Z,8.22
2023-04-09T23:15:27.182Z,8.21
2023-04-09T23:18:29.082Z,8.19
2023-04-09T23:21:31.810Z,8.19
2023-04-09T23:24:33.664Z,8.17
2023-04-09T23:27:35.598Z,8.11
2023-04-09T23:30:37.425Z,8.09
2023-04-09T23:33:39.302Z,8.06
2023-04-09T23:36:41.253Z,8.03
2023-04-09T23:39:43.634Z,8.01
2023-04-09T23:42:47.956Z,7.95
2023-04-09T23:45:50.672Z,7.91
2023-04-09T23:48:52.668Z,7.86
2023-04-09T23:51:54.618Z,7.83
2023-04-09T23:54:56.484Z,7.80
2023-04-09T23:57:58.333Z,7.79
